Aeroporto :
LOGIN :

Iscrizione | Disclaimer

   EN    FR    IT 

 










Sommario :    VFR   VFR Marginale   IFR   IFR Intensivo   IFR Molto Intensivo
Visibilità : 
Base nubi : 
>= 8 km
>= 3000ft
5 / 8 km
1000 / 3000 ft
1500m / 5 km
500 / 1000 ft
800 / 1500m
200 / 500 ft
< 800m
< 200 ft
Simboli :   Temporali  Nebbia  Neve Forte  Precipitazioni Forti  Vento > 20 kt
SIGMETs :   Varie  Temporali  Ghiacco  Turbolenza  Onda orograficha  Ceneri Vulcaniche







- Altitudine del aeroporto : 1058 ft
- Codice IATA : SCN


EDDR - Saarbrücken

ULTIMO METAR :
  • 230950Z 08008KT 050V110 CAVOK 15/06 Q0998 NOSIG

METARs OBSOLETI :
  • 230920Z 08008KT 040V110 CAVOK 14/06 Q0998 NOSIG
  • 230850Z 07008KT 040V100 CAVOK 14/06 Q0998 NOSIG
  • 230820Z 06008KT 020V090 CAVOK 14/05 Q0998 NOSIG
  • 230750Z 06009KT CAVOK 13/04 Q0998 NOSIG
  • 230720Z 06010KT 030V090 CAVOK 12/04 Q0998 NOSIG

TAF TAF EDDR
Valido dal 23 a 06 ore il 24 a 06 ore UTC


230500Z 2306/2406 05011KT CAVOK
BECMG 2308/2310 11008KT
BECMG 2321/2323 VRB03KT
BECMG 2404/2406 23008KT
PROB30
TEMPO 2404/2406 SHRA BKN080TCU
Nessun NOTAM noto per questo aeroporto.



MetMap, La meteo Aeronautica in un colpo d'occhio ! - Copyright ORBIFLY Dicembre 2007 - Disclaimer

ORBIFLY MET'MAP TEAM :

Programmazione e sviluppo : Alexandra Zaïnal
Concezione e sviluppo : Baudouin d'Aumeries
Co-Programmazione e sviluppo : Marc-Olivier Méhu
Supporto tecnico e logistico : Manuel Goepfert
Aiuto per la traduzione : Arnaldo La Scala

Contatto : metmap@orbifly.com




FONTI E CREDITI :

   NOAA